createdAt,value
2022-09-07T00:01:01.621Z,19.77
2022-09-07T00:06:33.676Z,19.73
2022-09-07T00:12:05.499Z,19.71
2022-09-07T00:17:37.387Z,19.71
2022-09-07T00:23:09.275Z,19.69
2022-09-07T00:28:40.831Z,19.66
2022-09-07T00:34:12.815Z,19.60
2022-09-07T00:39:44.862Z,19.54
2022-09-07T00:45:16.967Z,19.53
2022-09-07T00:50:48.985Z,19.56
2022-09-07T00:56:20.869Z,19.60
2022-09-07T01:01:52.811Z,19.64
2022-09-07T01:07:24.322Z,19.67
2022-09-07T01:12:56.344Z,19.71
2022-09-07T01:18:28.166Z,19.74
2022-09-07T01:24:00.374Z,19.76
2022-09-07T01:29:32.457Z,19.77
2022-09-07T01:35:04.250Z,19.74
2022-09-07T01:40:36.118Z,19.69
2022-09-07T01:46:08.050Z,19.64
2022-09-07T01:51:40.100Z,19.59
2022-09-07T01:57:11.894Z,19.54
2022-09-07T02:02:43.858Z,19.50
2022-09-07T02:08:15.644Z,19.47
2022-09-07T02:13:47.578Z,19.46
2022-09-07T02:19:19.296Z,19.48
2022-09-07T02:24:51.146Z,19.51
2022-09-07T02:30:23.177Z,19.54
2022-09-07T02:35:54.596Z,19.58
2022-09-07T02:41:26.477Z,19.61
2022-09-07T02:46:58.302Z,19.64
2022-09-07T02:52:30.090Z,19.67
2022-09-07T02:58:01.959Z,19.68
2022-09-07T03:03:33.813Z,19.67
2022-09-07T03:09:05.505Z,19.66
2022-09-07T03:14:37.398Z,19.65
2022-09-07T03:22:30.346Z,19.24
2022-09-07T03:28:02.396Z,19.41
2022-09-07T03:33:34.506Z,19.48
2022-09-07T03:39:06.243Z,19.52
2022-09-07T03:44:37.904Z,19.53
2022-09-07T03:50:09.864Z,19.53
2022-09-07T03:55:41.421Z,19.51
2022-09-07T04:01:13.256Z,19.48
2022-09-07T04:06:44.868Z,19.43
2022-09-07T04:12:16.642Z,19.38
2022-09-07T04:17:48.758Z,19.36
2022-09-07T04:23:20.096Z,19.35
2022-09-07T04:28:52.418Z,19.35
2022-09-07T04:34:24.571Z,19.36
2022-09-07T04:39:56.266Z,19.37
2022-09-07T04:45:27.864Z,19.39
2022-09-07T04:51:02.907Z,19.41
2022-09-07T04:56:31.423Z,19.43
2022-09-07T05:02:03.244Z,19.46
2022-09-07T05:07:35.103Z,19.49
2022-09-07T05:13:06.601Z,19.54
2022-09-07T05:18:38.400Z,19.61
2022-09-07T05:24:10.126Z,19.71
2022-09-07T05:35:13.473Z,19.90
2022-09-07T05:40:45.112Z,19.94
2022-09-07T05:46:16.937Z,19.94
2022-09-07T05:51:48.922Z,19.88
2022-09-07T05:57:20.463Z,19.75
2022-09-07T06:02:52.430Z,19.59
2022-09-07T06:08:23.834Z,19.39
2022-09-07T06:13:55.852Z,19.18
2022-09-07T06:19:27.840Z,19.06
2022-09-07T06:24:59.383Z,19.01
2022-09-07T06:36:03.231Z,19.06
2022-09-07T06:47:06.516Z,19.32
2022-09-07T06:58:10.122Z,20.03
2022-09-07T07:03:42.093Z,20.97
2022-09-07T07:09:14.043Z,22.16
2022-09-07T07:14:45.429Z,23.39
2022-09-07T07:20:17.294Z,24.60
2022-09-07T07:25:49.087Z,25.66
2022-09-07T07:31:21.097Z,26.50
2022-09-07T07:36:53.176Z,27.22
2022-09-07T07:42:24.776Z,27.86
2022-09-07T07:47:56.511Z,28.27
2022-09-07T07:53:43.650Z,28.54
2022-09-07T07:59:00.131Z,28.76
2022-09-07T08:10:01.338Z,29.07
2022-09-07T08:15:33.339Z,29.02
2022-09-07T08:21:04.865Z,28.90
2022-09-07T08:32:06.721Z,28.84
2022-09-07T08:37:38.532Z,28.93
2022-09-07T08:43:10.377Z,29.09
2022-09-07T08:48:42.525Z,29.26
2022-09-07T08:54:14.335Z,29.20
2022-09-07T08:59:46.018Z,28.99
2022-09-07T09:10:47.223Z,28.86
2022-09-07T09:16:19.498Z,29.01
2022-09-07T09:21:51.103Z,29.13
2022-09-07T09:27:22.814Z,29.37
2022-09-07T09:32:54.679Z,29.58
2022-09-07T09:38:27.091Z,29.63
2022-09-07T09:43:58.859Z,29.57
2022-09-07T09:49:30.422Z,29.44
2022-09-07T09:55:33.997Z,29.35
2022-09-07T10:00:34.728Z,29.26
2022-09-07T10:06:05.805Z,29.19
2022-09-07T10:17:09.698Z,29.25
2022-09-07T10:22:41.247Z,29.33
2022-09-07T10:28:13.319Z,29.37
2022-09-07T10:34:25.671Z,29.35
2022-09-07T10:39:16.726Z,29.32
2022-09-07T10:50:24.638Z,29.37
2022-09-07T10:55:49.296Z,29.36
2022-09-07T11:01:21.218Z,29.26
2022-09-07T11:06:52.993Z,29.19
2022-09-07T11:12:27.953Z,29.18
2022-09-07T11:17:56.527Z,29.16
2022-09-07T11:23:28.183Z,29.20
2022-09-07T11:34:32.020Z,29.29
2022-09-07T11:40:03.553Z,29.33
2022-09-07T11:45:35.561Z,29.42
2022-09-07T11:51:07.347Z,29.50
2022-09-07T11:56:39.129Z,29.54
2022-09-07T12:02:10.948Z,29.55
2022-09-07T12:07:42.738Z,29.46
2022-09-07T12:13:14.479Z,29.40
2022-09-07T12:18:46.253Z,29.44
2022-09-07T12:24:17.833Z,29.48
2022-09-07T12:29:49.583Z,29.51
2022-09-07T12:35:21.298Z,29.53
2022-09-07T12:40:53.495Z,29.61
2022-09-07T12:46:25.552Z,29.70
2022-09-07T12:52:06.868Z,29.76
2022-09-07T12:57:29.378Z,29.81
2022-09-07T13:08:30.872Z,29.92
2022-09-07T13:14:04.526Z,29.96
2022-09-07T13:19:35.431Z,29.98
2022-09-07T13:30:36.291Z,30.00
2022-09-07T13:36:08.064Z,29.96
2022-09-07T13:41:39.960Z,30.01
2022-09-07T13:47:11.520Z,30.06
2022-09-07T13:52:45.776Z,30.08
2022-09-07T14:03:49.129Z,29.88
2022-09-07T14:09:20.781Z,29.73
2022-09-07T14:14:52.614Z,29.40
2022-09-07T14:20:24.596Z,29.13
2022-09-07T14:31:28.213Z,29.05
2022-09-07T14:37:01.445Z,29.07
2022-09-07T14:42:32.145Z,29.06
2022-09-07T14:48:03.986Z,28.98
2022-09-07T14:53:36.106Z,28.93
2022-09-07T14:59:07.547Z,28.89
2022-09-07T15:15:43.149Z,28.59
2022-09-07T15:21:14.626Z,28.55
2022-09-07T15:32:18.215Z,28.49
2022-09-07T15:38:06.053Z,28.43
2022-09-07T15:43:23.320Z,28.39
2022-09-07T15:48:53.439Z,28.37
2022-09-07T15:54:25.600Z,28.36
2022-09-07T15:59:57.882Z,28.32
2022-09-07T16:05:31.314Z,28.25
2022-09-07T16:11:12.503Z,28.15
2022-09-07T16:22:07.290Z,27.94
2022-09-07T16:27:38.896Z,27.84
2022-09-07T16:33:10.889Z,27.78
2022-09-07T16:35:22.166Z,27.35
2022-09-07T16:40:53.620Z,27.49
2022-09-07T16:46:25.311Z,27.50
2022-09-07T16:51:57.683Z,27.46
2022-09-07T16:58:35.186Z,27.37
2022-09-07T17:03:01.330Z,27.26
2022-09-07T17:08:33.379Z,27.11
2022-09-07T17:14:04.926Z,26.89
2022-09-07T17:19:37.012Z,26.66
2022-09-07T17:25:09.201Z,26.51
2022-09-07T17:36:13.422Z,26.26
2022-09-07T17:41:45.639Z,26.14
2022-09-07T17:47:17.347Z,26.04
2022-09-07T17:52:52.691Z,25.92
2022-09-07T17:58:20.890Z,25.75
2022-09-07T18:03:52.489Z,25.57
2022-09-07T18:09:23.632Z,25.38
2022-09-07T18:14:55.567Z,25.16
2022-09-07T18:20:27.405Z,24.98
2022-09-07T18:25:59.025Z,24.84
2022-09-07T18:31:30.471Z,24.69
2022-09-07T18:37:02.497Z,24.53
2022-09-07T18:42:34.584Z,24.38
2022-09-07T18:48:06.093Z,24.26
2022-09-07T18:53:37.591Z,24.16
2022-09-07T18:59:09.394Z,24.07
2022-09-07T19:12:24.189Z,23.25
2022-09-07T19:17:56.200Z,23.43
2022-09-07T19:25:40.471Z,23.18
2022-09-07T19:31:12.461Z,23.34
2022-09-07T19:36:44.138Z,23.40
2022-09-07T19:44:42.715Z,23.15
2022-09-07T19:50:14.397Z,23.28
2022-09-07T19:55:45.903Z,23.27
2022-09-07T20:01:17.357Z,23.22
2022-09-07T20:06:48.899Z,23.16
2022-09-07T20:12:20.351Z,23.10
2022-09-07T20:17:51.718Z,23.01
2022-09-07T20:23:29.258Z,22.91
2022-09-07T20:34:32.548Z,22.71
2022-09-07T20:40:10.174Z,22.58
2022-09-07T20:45:47.755Z,22.46
2022-09-07T20:51:21.003Z,22.34
2022-09-07T20:56:59.989Z,22.19
2022-09-07T21:02:28.296Z,22.04
2022-09-07T21:13:29.107Z,21.83
2022-09-07T21:19:00.260Z,21.78
2022-09-07T21:24:31.670Z,21.75
2022-09-07T21:30:03.259Z,21.73
2022-09-07T21:35:34.738Z,21.72
2022-09-07T21:41:06.051Z,21.69
2022-09-07T21:43:29.017Z,21.19
2022-09-07T21:49:00.193Z,21.36
2022-09-07T21:54:31.674Z,21.41
2022-09-07T22:00:03.244Z,21.36
2022-09-07T22:05:34.673Z,21.29
2022-09-07T22:11:05.945Z,21.24
2022-09-07T22:16:37.452Z,21.21
2022-09-07T22:22:08.730Z,21.22
2022-09-07T22:27:40.084Z,21.28
2022-09-07T22:38:41.039Z,21.37
2022-09-07T22:44:12.592Z,21.32
2022-09-07T22:49:43.969Z,21.29
2022-09-07T22:55:15.690Z,21.30
2022-09-07T23:00:47.241Z,21.33
2022-09-07T23:06:18.668Z,21.30
2022-09-07T23:11:49.872Z,21.03
2022-09-07T23:17:21.319Z,20.70
2022-09-07T23:22:53.075Z,20.45
2022-09-07T23:28:24.852Z,20.18
2022-09-07T23:39:26.209Z,19.40
2022-09-07T23:50:27.517Z,18.75
2022-09-07T23:55:59.373Z,18.55
